createdAt,value
2022-10-25T00:00:39.979Z,90.27
2022-10-25T00:03:09.167Z,92.22
2022-10-25T00:05:37.082Z,91.61
2022-10-25T00:08:04.659Z,91.66
2022-10-25T00:10:32.433Z,89.82
2022-10-25T00:12:59.784Z,94.14
2022-10-25T00:15:27.108Z,92.08
2022-10-25T00:17:54.864Z,92.04
2022-10-25T00:20:22.207Z,97.17
2022-10-25T00:22:49.680Z,89.61
2022-10-25T00:25:17.340Z,86.79
2022-10-25T00:27:44.712Z,93.64
2022-10-25T00:30:12.448Z,94.63
2022-10-25T00:32:40.076Z,94.22
2022-10-25T00:35:07.755Z,90.92
2022-10-25T00:37:35.817Z,93.38
2022-10-25T00:40:04.506Z,91.21
2022-10-25T00:42:31.861Z,88.06
2022-10-25T00:45:04.334Z,86.22
2022-10-25T00:47:44.874Z,87.67
2022-10-25T00:50:34.216Z,98.02
2022-10-25T00:53:09.247Z,100.00
2022-10-25T00:55:36.660Z,100.00
2022-10-25T00:58:07.818Z,100.00
2022-10-25T01:00:35.873Z,100.00
2022-10-25T01:03:03.993Z,100.00
2022-10-25T01:05:32.489Z,100.00
2022-10-25T01:07:59.868Z,100.00
2022-10-25T01:10:27.259Z,100.00
2022-10-25T01:12:55.168Z,100.00
2022-10-25T01:15:25.323Z,100.00
2022-10-25T01:18:18.902Z,100.00
2022-10-25T01:21:12.871Z,100.00
2022-10-25T01:23:58.316Z,100.00
2022-10-25T01:26:31.808Z,95.85
2022-10-25T01:29:21.797Z,92.51
2022-10-25T01:32:04.150Z,95.05
2022-10-25T01:34:44.930Z,98.75
2022-10-25T01:37:30.071Z,100.00
2022-10-25T01:40:11.932Z,96.25
2022-10-25T01:42:51.452Z,92.76
2022-10-25T01:45:27.019Z,95.33
2022-10-25T01:48:00.296Z,93.08
2022-10-25T01:50:30.328Z,94.35
2022-10-25T01:52:57.963Z,91.46
2022-10-25T01:55:30.188Z,89.59
2022-10-25T01:57:58.895Z,91.61
2022-10-25T02:00:26.684Z,90.00
2022-10-25T02:02:54.223Z,90.22
2022-10-25T02:05:27.474Z,90.42
2022-10-25T02:08:03.149Z,89.12
2022-10-25T02:10:49.910Z,90.67
2022-10-25T02:13:27.721Z,94.25
2022-10-25T02:16:08.389Z,98.83
2022-10-25T02:18:37.734Z,100.00
2022-10-25T02:21:06.582Z,99.82
2022-10-25T02:23:35.132Z,93.76
2022-10-25T02:26:04.269Z,96.44
2022-10-25T02:28:32.964Z,90.99
2022-10-25T02:31:00.562Z,96.01
2022-10-25T02:33:27.931Z,91.21
2022-10-25T02:36:25.360Z,94.29
2022-10-25T02:38:53.282Z,93.94
2022-10-25T02:41:21.718Z,93.44
2022-10-25T02:43:49.219Z,97.09
2022-10-25T02:46:19.231Z,100.00
2022-10-25T02:48:47.551Z,100.00
2022-10-25T02:51:15.278Z,100.00
2022-10-25T02:53:42.935Z,100.00
2022-10-25T02:56:16.144Z,99.09
2022-10-25T02:58:44.206Z,98.04
2022-10-25T03:01:12.957Z,98.44
2022-10-25T03:03:40.730Z,99.58
2022-10-25T03:06:09.171Z,100.00
2022-10-25T03:08:38.261Z,100.00
2022-10-25T03:11:06.583Z,100.00
2022-10-25T03:13:34.179Z,100.00
2022-10-25T03:16:01.917Z,100.00
2022-10-25T03:18:29.308Z,98.81
2022-10-25T03:20:58.306Z,100.00
2022-10-25T03:23:26.771Z,100.00
2022-10-25T03:25:55.100Z,100.00
2022-10-25T03:28:22.515Z,100.00
2022-10-25T03:30:50.282Z,100.00
2022-10-25T03:33:17.695Z,100.00
2022-10-25T03:35:45.302Z,100.00
2022-10-25T03:38:12.919Z,98.71
2022-10-25T03:40:40.339Z,96.77
2022-10-25T03:43:07.756Z,92.13
2022-10-25T03:45:35.433Z,94.11
2022-10-25T03:48:02.788Z,97.51
2022-10-25T03:50:30.143Z,96.94
2022-10-25T03:52:57.758Z,96.14
2022-10-25T03:55:25.157Z,96.93
2022-10-25T03:57:52.537Z,94.62
2022-10-25T04:00:20.224Z,97.85
2022-10-25T04:02:47.967Z,99.40
2022-10-25T04:05:15.404Z,94.58
2022-10-25T04:07:42.726Z,99.72
2022-10-25T04:10:10.309Z,95.83
2022-10-25T04:12:37.700Z,94.38
2022-10-25T04:15:05.447Z,90.91
2022-10-25T04:17:33.109Z,94.69
2022-10-25T04:20:00.609Z,97.79
2022-10-25T04:22:28.047Z,95.46
2022-10-25T04:24:55.654Z,100.00
2022-10-25T04:27:23.264Z,100.00
2022-10-25T04:29:50.683Z,100.00
2022-10-25T04:34:45.546Z,100.00
2022-10-25T04:37:12.878Z,100.00
2022-10-25T04:39:40.546Z,100.00
2022-10-25T04:44:40.600Z,100.00
2022-10-25T04:47:07.938Z,99.24
2022-10-25T04:49:35.310Z,100.00
2022-10-25T04:52:02.888Z,100.00
2022-10-25T04:54:30.273Z,97.45
2022-10-25T04:56:57.615Z,100.00
2022-10-25T04:59:25.261Z,100.00
2022-10-25T05:01:52.580Z,100.00
2022-10-25T05:04:19.947Z,100.00
2022-10-25T05:06:47.565Z,100.00
2022-10-25T05:09:14.904Z,100.00
2022-10-25T05:11:42.267Z,99.97
2022-10-25T05:14:09.983Z,97.54
2022-10-25T05:16:39.168Z,100.00
2022-10-25T05:19:06.625Z,93.03
2022-10-25T05:21:35.494Z,91.66
2022-10-25T05:24:03.017Z,89.74
2022-10-25T05:26:31.212Z,89.54
2022-10-25T05:28:58.864Z,90.86
2022-10-25T05:31:28.392Z,88.70
2022-10-25T05:33:58.297Z,88.33
2022-10-25T05:36:29.432Z,89.68
2022-10-25T05:38:56.811Z,91.93
2022-10-25T05:41:24.181Z,93.04
2022-10-25T05:43:51.814Z,95.00
2022-10-25T05:46:21.288Z,95.30
2022-10-25T05:48:49.629Z,93.27
2022-10-25T05:51:35.741Z,100.00
2022-10-25T05:54:14.836Z,94.94
2022-10-25T05:56:43.281Z,95.65
2022-10-25T05:59:14.844Z,97.89
2022-10-25T06:01:46.472Z,93.67
2022-10-25T06:04:15.128Z,89.62
2022-10-25T06:06:43.901Z,87.76
2022-10-25T06:09:11.553Z,90.00
2022-10-25T06:11:39.986Z,97.70
2022-10-25T06:14:07.342Z,92.49
2022-10-25T06:16:37.183Z,96.19
2022-10-25T06:19:04.827Z,100.00
2022-10-25T06:21:32.180Z,99.03
2022-10-25T06:24:00.161Z,100.00
2022-10-25T06:26:29.581Z,99.69
2022-10-25T06:28:59.201Z,91.64
2022-10-25T06:31:27.052Z,96.06
2022-10-25T06:33:54.704Z,96.91
2022-10-25T06:36:23.731Z,99.25
2022-10-25T06:38:51.267Z,99.03
2022-10-25T06:41:21.081Z,99.21
2022-10-25T06:43:49.301Z,99.47
2022-10-25T06:46:31.755Z,98.51
2022-10-25T06:49:00.628Z,99.16
2022-10-25T06:51:29.175Z,96.53
2022-10-25T06:53:58.307Z,95.34
2022-10-25T06:56:27.239Z,96.22
2022-10-25T06:58:55.157Z,95.19
2022-10-25T07:01:23.562Z,95.46
2022-10-25T07:03:53.765Z,91.97
2022-10-25T07:06:27.415Z,88.44
2022-10-25T07:08:59.202Z,86.86
2022-10-25T07:11:29.657Z,86.23
2022-10-25T07:13:58.907Z,89.42
2022-10-25T07:16:27.450Z,92.19
2022-10-25T07:19:01.767Z,90.42
2022-10-25T07:21:31.685Z,89.75
2022-10-25T07:23:59.337Z,90.75
2022-10-25T07:26:31.884Z,89.78
2022-10-25T07:29:01.257Z,88.61
2022-10-25T07:31:31.676Z,90.12
2022-10-25T07:34:01.695Z,83.03
2022-10-25T07:36:29.578Z,83.44
2022-10-25T07:38:57.327Z,89.26
2022-10-25T07:41:25.935Z,91.22
2022-10-25T07:43:53.465Z,84.80
2022-10-25T07:46:21.239Z,82.23
2022-10-25T07:48:48.834Z,81.56
2022-10-25T07:51:17.148Z,88.06
2022-10-25T07:53:44.737Z,89.69
2022-10-25T07:56:16.213Z,85.74
2022-10-25T07:58:46.480Z,84.42
2022-10-25T08:01:19.297Z,91.04
2022-10-25T08:03:47.290Z,90.16
2022-10-25T08:06:14.732Z,88.83
2022-10-25T08:08:42.074Z,89.70
2022-10-25T08:11:09.717Z,87.90
2022-10-25T08:13:37.981Z,86.83
2022-10-25T08:16:06.056Z,89.95
2022-10-25T08:18:34.593Z,87.61
2022-10-25T08:21:04.034Z,89.73
2022-10-25T08:23:32.803Z,86.94
2022-10-25T08:26:01.495Z,87.45
2022-10-25T08:28:31.321Z,89.99
2022-10-25T08:31:00.940Z,90.70
2022-10-25T08:33:29.376Z,93.25
2022-10-25T08:35:59.935Z,89.42
2022-10-25T08:38:27.260Z,88.21
2022-10-25T08:41:17.324Z,90.68
2022-10-25T08:44:06.144Z,87.67
2022-10-25T08:46:43.919Z,83.88
2022-10-25T08:49:55.297Z,88.36
2022-10-25T08:52:40.129Z,88.13
2022-10-25T08:55:18.335Z,82.13
2022-10-25T08:57:47.074Z,83.62
2022-10-25T09:00:19.610Z,86.99
2022-10-25T09:02:58.178Z,82.96
2022-10-25T09:05:38.772Z,83.62
2022-10-25T09:08:15.696Z,88.36
2022-10-25T09:11:04.294Z,86.81
2022-10-25T09:13:51.143Z,85.15
2022-10-25T09:16:22.085Z,87.06
2022-10-25T09:18:55.045Z,83.88
2022-10-25T09:21:50.407Z,80.84
2022-10-25T09:24:50.909Z,81.71
2022-10-25T09:27:29.516Z,87.30
2022-10-25T09:30:07.312Z,82.24
2022-10-25T09:32:47.908Z,82.42
2022-10-25T09:35:18.142Z,81.89
2022-10-25T09:37:49.069Z,80.39
2022-10-25T09:40:22.261Z,81.12
2022-10-25T09:42:56.036Z,80.26
2022-10-25T09:45:30.459Z,80.10
2022-10-25T09:48:16.757Z,79.83
2022-10-25T09:50:48.105Z,81.32
2022-10-25T09:53:20.274Z,80.60
2022-10-25T09:55:55.701Z,82.36
2022-10-25T09:58:31.847Z,82.54
2022-10-25T10:01:02.646Z,83.93
2022-10-25T10:03:32.825Z,86.44
2022-10-25T10:06:03.567Z,87.23
2022-10-25T10:08:33.251Z,84.15
2022-10-25T10:11:00.742Z,85.25
2022-10-25T10:13:40.228Z,84.35
2022-10-25T10:16:27.010Z,80.80
2022-10-25T10:19:24.291Z,80.35
2022-10-25T10:22:00.123Z,84.91
2022-10-25T10:24:33.268Z,81.49
2022-10-25T10:27:03.418Z,79.47
2022-10-25T10:29:32.342Z,79.56
2022-10-25T10:32:01.403Z,79.42
2022-10-25T10:34:41.361Z,79.59
2022-10-25T10:37:17.191Z,80.06
2022-10-25T10:39:58.549Z,78.31
2022-10-25T10:42:42.732Z,77.93
2022-10-25T10:45:18.657Z,77.70
2022-10-25T10:47:59.063Z,78.05
2022-10-25T10:50:28.943Z,78.55
2022-10-25T10:52:59.797Z,78.76
2022-10-25T10:55:35.621Z,80.39
2022-10-25T10:58:04.458Z,79.75
2022-10-25T11:00:32.983Z,80.11
2022-10-25T11:03:00.700Z,81.45
2022-10-25T11:05:32.592Z,81.59
2022-10-25T11:08:02.705Z,78.40
2022-10-25T11:10:34.381Z,78.54
2022-10-25T11:13:11.111Z,80.27
2022-10-25T11:16:08.863Z,76.93
2022-10-25T11:18:53.872Z,78.46
2022-10-25T11:21:42.314Z,76.94
2022-10-25T11:24:31.639Z,79.42
2022-10-25T11:27:10.322Z,77.91
2022-10-25T11:29:56.770Z,78.95
2022-10-25T11:32:39.004Z,75.18
2022-10-25T11:35:25.396Z,72.84
2022-10-25T11:38:20.500Z,74.33
2022-10-25T11:41:14.149Z,70.06
2022-10-25T11:43:56.746Z,68.59
2022-10-25T11:46:30.249Z,64.52
2022-10-25T11:49:19.053Z,67.15
2022-10-25T11:51:56.784Z,65.82
2022-10-25T11:54:39.025Z,61.86
2022-10-25T11:57:47.063Z,60.32
2022-10-25T12:00:20.094Z,61.41
2022-10-25T12:03:02.767Z,60.35
2022-10-25T12:05:39.835Z,62.03
2022-10-25T12:08:16.026Z,59.36
2022-10-25T12:10:51.333Z,59.34
2022-10-25T12:13:34.325Z,58.87
2022-10-25T12:16:03.702Z,58.53
2022-10-25T12:18:35.086Z,57.73
2022-10-25T12:21:03.091Z,57.42
2022-10-25T12:23:39.791Z,58.38
2022-10-25T12:26:12.265Z,58.78
2022-10-25T12:28:46.959Z,59.40
2022-10-25T12:31:20.875Z,57.86
2022-10-25T12:33:59.495Z,58.67
2022-10-25T12:36:36.704Z,57.97
2022-10-25T12:39:15.760Z,56.66
2022-10-25T12:41:44.556Z,57.22
2022-10-25T12:44:18.215Z,58.92
2022-10-25T12:46:54.624Z,59.42
2022-10-25T12:49:57.356Z,60.45
2022-10-25T12:53:09.656Z,58.76
2022-10-25T12:55:57.754Z,58.78
2022-10-25T12:58:48.615Z,61.52
2022-10-25T13:01:47.488Z,62.12
2022-10-25T13:04:27.050Z,62.16
2022-10-25T13:06:55.261Z,59.91
2022-10-25T13:09:26.985Z,60.83
2022-10-25T13:12:19.297Z,60.97
2022-10-25T13:14:56.649Z,62.46
2022-10-25T13:17:24.115Z,59.14
2022-10-25T13:19:55.084Z,60.56
2022-10-25T13:22:35.765Z,59.56
2022-10-25T13:25:12.491Z,60.72
2022-10-25T13:28:11.300Z,59.79
2022-10-25T13:30:38.926Z,59.03
2022-10-25T13:33:27.934Z,60.21
2022-10-25T13:35:59.418Z,57.87
2022-10-25T13:38:29.382Z,57.34
2022-10-25T13:41:10.052Z,57.55
2022-10-25T13:43:56.545Z,57.38
2022-10-25T13:46:31.836Z,57.42
2022-10-25T13:49:01.206Z,56.57
2022-10-25T13:51:30.527Z,55.93
2022-10-25T13:54:01.898Z,55.23
2022-10-25T13:56:29.775Z,57.05
2022-10-25T13:58:58.263Z,56.33
2022-10-25T14:01:25.697Z,56.41
2022-10-25T14:04:02.522Z,57.36
2022-10-25T14:06:30.633Z,56.23
2022-10-25T14:09:23.049Z,54.80
2022-10-25T14:11:59.397Z,54.73
2022-10-25T14:14:31.556Z,53.30
2022-10-25T14:17:10.952Z,55.58
2022-10-25T14:19:42.540Z,54.30
2022-10-25T14:22:18.705Z,56.83
2022-10-25T14:24:49.451Z,54.69
2022-10-25T14:27:32.000Z,57.12
2022-10-25T14:30:33.656Z,53.96
2022-10-25T14:33:03.741Z,52.76
2022-10-25T14:35:34.312Z,55.77
2022-10-25T14:38:03.479Z,57.00
2022-10-25T14:40:31.799Z,56.66
2022-10-25T14:43:18.853Z,56.21
2022-10-25T14:46:14.391Z,56.02
2022-10-25T14:48:42.240Z,56.39
2022-10-25T14:51:19.619Z,56.17
2022-10-25T14:53:53.752Z,54.06
2022-10-25T14:56:28.350Z,57.29
2022-10-25T14:58:56.250Z,58.01
2022-10-25T15:01:24.006Z,57.93
2022-10-25T15:03:53.435Z,57.63
2022-10-25T15:06:24.276Z,57.09
2022-10-25T15:09:16.164Z,56.71
2022-10-25T15:12:06.081Z,57.38
2022-10-25T15:14:34.414Z,58.78
2022-10-25T15:17:06.832Z,59.38
2022-10-25T15:20:01.181Z,59.19
2022-10-25T15:22:31.149Z,60.06
2022-10-25T15:24:58.862Z,60.27
2022-10-25T15:27:40.195Z,61.02
2022-10-25T15:30:46.257Z,61.35
2022-10-25T15:33:18.638Z,61.67
2022-10-25T15:35:50.185Z,61.53
2022-10-25T15:38:18.038Z,62.00
2022-10-25T15:40:46.548Z,61.98
2022-10-25T15:43:13.989Z,62.52
2022-10-25T15:45:41.592Z,62.31
2022-10-25T15:48:20.265Z,63.11
2022-10-25T15:50:51.407Z,62.32
2022-10-25T15:53:19.991Z,62.64
2022-10-25T15:55:48.491Z,60.32
2022-10-25T15:58:15.941Z,63.43
2022-10-25T16:00:44.185Z,64.45
2022-10-25T16:03:23.565Z,64.80
2022-10-25T16:05:51.837Z,65.29
2022-10-25T16:08:19.491Z,65.34
2022-10-25T16:10:46.872Z,65.26
2022-10-25T16:13:37.475Z,64.88
2022-10-25T16:16:21.877Z,65.47
2022-10-25T16:18:54.618Z,65.34
2022-10-25T16:21:22.949Z,63.42
2022-10-25T16:23:50.290Z,63.00
2022-10-25T16:26:25.053Z,66.07
2022-10-25T16:28:52.772Z,65.70
2022-10-25T16:31:20.213Z,65.58
2022-10-25T16:33:47.551Z,66.03
2022-10-25T16:36:15.274Z,65.57
2022-10-25T16:38:42.626Z,65.59
2022-10-25T16:41:25.639Z,65.62
2022-10-25T16:43:53.419Z,65.69
2022-10-25T16:46:22.319Z,65.66
2022-10-25T16:48:49.814Z,65.75
2022-10-25T16:51:18.382Z,64.79
2022-10-25T16:53:46.660Z,66.88
2022-10-25T16:56:14.531Z,66.27
2022-10-25T16:58:43.056Z,65.08
2022-10-25T17:01:34.931Z,65.17
2022-10-25T17:04:04.236Z,64.05
2022-10-25T17:06:47.224Z,66.85
2022-10-25T17:09:15.238Z,68.03
2022-10-25T17:12:01.480Z,69.99
2022-10-25T17:14:31.132Z,71.65
2022-10-25T17:17:03.086Z,71.74
2022-10-25T17:19:31.155Z,72.93
2022-10-25T17:21:58.572Z,73.37
2022-10-25T17:24:25.981Z,73.32
2022-10-25T17:26:54.048Z,73.14
2022-10-25T17:29:21.532Z,73.41
2022-10-25T17:31:48.957Z,73.98
2022-10-25T17:34:17.730Z,73.76
2022-10-25T17:36:45.279Z,75.69
2022-10-25T17:39:13.741Z,76.19
2022-10-25T17:41:41.442Z,77.78
2022-10-25T17:44:11.861Z,75.77
2022-10-25T17:46:39.457Z,75.15
2022-10-25T17:49:07.723Z,75.54
2022-10-25T17:51:35.736Z,74.51
2022-10-25T17:54:03.808Z,76.59
2022-10-25T17:56:35.360Z,78.59
2022-10-25T17:59:05.699Z,77.98
2022-10-25T18:01:36.317Z,77.94
2022-10-25T18:04:04.702Z,79.77
2022-10-25T18:06:32.182Z,80.46
2022-10-25T18:09:00.319Z,79.37
2022-10-25T18:11:28.488Z,78.63
2022-10-25T18:14:01.088Z,75.62
2022-10-25T18:16:31.431Z,75.92
2022-10-25T18:19:01.465Z,80.38
2022-10-25T18:21:30.031Z,79.71
2022-10-25T18:24:03.004Z,81.54
2022-10-25T18:26:31.329Z,82.56
2022-10-25T18:28:59.608Z,83.57
2022-10-25T18:31:28.201Z,83.12
2022-10-25T18:33:56.715Z,83.44
2022-10-25T18:36:24.767Z,83.72
2022-10-25T18:38:54.381Z,85.34
2022-10-25T18:41:24.790Z,85.60
2022-10-25T18:43:52.807Z,85.70
2022-10-25T18:46:21.046Z,86.27
2022-10-25T18:48:55.473Z,82.84
2022-10-25T18:51:25.158Z,83.07
2022-10-25T18:53:53.816Z,82.59
2022-10-25T18:56:22.486Z,83.17
2022-10-25T18:58:50.892Z,82.52
2022-10-25T19:01:21.448Z,79.95
2022-10-25T19:03:49.693Z,77.49
2022-10-25T19:06:18.129Z,84.09
2022-10-25T19:08:46.494Z,79.67
2022-10-25T19:11:14.727Z,83.27
2022-10-25T19:13:45.093Z,86.51
2022-10-25T19:16:17.127Z,86.28
2022-10-25T19:18:45.287Z,86.43
2022-10-25T19:21:15.190Z,86.54
2022-10-25T19:23:45.032Z,84.32
2022-10-25T19:26:16.332Z,80.75
2022-10-25T19:28:44.513Z,84.92
2022-10-25T19:31:17.558Z,85.74
2022-10-25T19:33:46.979Z,88.53
2022-10-25T19:36:15.124Z,89.32
2022-10-25T19:38:43.029Z,88.57
2022-10-25T19:41:15.734Z,87.36
2022-10-25T19:43:43.915Z,87.97
2022-10-25T19:46:14.768Z,88.09
2022-10-25T19:48:43.595Z,87.57
2022-10-25T19:51:17.450Z,87.92
2022-10-25T19:53:46.141Z,89.16
2022-10-25T19:56:16.202Z,89.61
2022-10-25T19:58:44.320Z,91.10
2022-10-25T20:01:14.789Z,91.20
2022-10-25T20:03:43.797Z,89.57
2022-10-25T20:06:18.825Z,89.26
2022-10-25T20:08:49.762Z,90.03
2022-10-25T20:11:18.771Z,89.12
2022-10-25T20:13:46.717Z,89.05
2022-10-25T20:16:15.641Z,88.35
2022-10-25T20:18:43.668Z,89.04
2022-10-25T20:21:13.895Z,88.90
2022-10-25T20:23:44.590Z,89.08
2022-10-25T20:26:20.980Z,82.49
2022-10-25T20:28:49.104Z,86.28
2022-10-25T20:31:16.714Z,90.43
2022-10-25T20:33:44.481Z,89.56
2022-10-25T20:36:13.747Z,90.46
2022-10-25T20:38:42.518Z,91.88
2022-10-25T20:41:16.148Z,86.92
2022-10-25T20:43:51.413Z,90.90
2022-10-25T20:46:19.916Z,89.44
2022-10-25T20:48:47.607Z,90.83
2022-10-25T20:51:16.277Z,90.29
2022-10-25T20:53:45.679Z,89.80
2022-10-25T20:56:13.539Z,88.50
2022-10-25T20:58:40.910Z,79.66
2022-10-25T21:01:09.749Z,79.42
2022-10-25T21:03:38.385Z,84.28
2022-10-25T21:06:07.185Z,85.81
2022-10-25T21:08:36.723Z,86.25
2022-10-25T21:11:06.174Z,87.65
2022-10-25T21:13:34.917Z,91.14
2022-10-25T21:16:06.509Z,92.74
2022-10-25T21:18:34.247Z,93.55
2022-10-25T21:21:03.729Z,93.94
2022-10-25T21:23:32.544Z,93.26
2022-10-25T21:26:01.249Z,92.52
2022-10-25T21:28:32.039Z,92.34
2022-10-25T21:31:03.786Z,91.04
2022-10-25T21:33:31.196Z,90.21
2022-10-25T21:36:08.246Z,89.30
2022-10-25T21:38:36.182Z,92.72
2022-10-25T21:41:08.492Z,83.83
2022-10-25T21:43:37.271Z,79.77
2022-10-25T21:46:05.911Z,84.37
2022-10-25T21:48:34.166Z,90.14
2022-10-25T21:51:01.968Z,91.23
2022-10-25T21:53:29.427Z,91.00
2022-10-25T21:56:13.241Z,88.11
2022-10-25T21:58:42.832Z,86.34
2022-10-25T22:01:12.448Z,89.42
2022-10-25T22:03:40.774Z,90.84
2022-10-25T22:06:09.348Z,91.62
2022-10-25T22:08:36.949Z,89.98
2022-10-25T22:11:12.168Z,89.06
2022-10-25T22:13:39.645Z,89.21
2022-10-25T22:16:09.559Z,88.62
2022-10-25T22:18:37.296Z,88.18
2022-10-25T22:21:07.252Z,89.64
2022-10-25T22:23:35.224Z,88.66
2022-10-25T22:26:07.661Z,88.56
2022-10-25T22:28:38.378Z,89.93
2022-10-25T22:31:16.098Z,91.60
2022-10-25T22:33:44.714Z,93.68
2022-10-25T22:36:17.269Z,94.16
2022-10-25T22:38:45.248Z,95.00
2022-10-25T22:41:18.381Z,95.72
2022-10-25T22:43:46.758Z,97.67
2022-10-25T22:46:16.684Z,97.59
2022-10-25T22:48:44.828Z,95.80
2022-10-25T22:51:12.634Z,95.42
2022-10-25T22:53:40.988Z,96.20
2022-10-25T22:56:16.126Z,97.07
2022-10-25T22:58:49.111Z,99.51
2022-10-25T23:01:29.601Z,99.28
2022-10-25T23:03:58.337Z,95.03
2022-10-25T23:06:28.148Z,90.40
2022-10-25T23:08:56.707Z,87.81
2022-10-25T23:11:32.851Z,90.43
2022-10-25T23:14:01.464Z,88.91
2022-10-25T23:16:29.887Z,89.25
2022-10-25T23:18:57.484Z,88.25
2022-10-25T23:21:26.816Z,87.63
2022-10-25T23:23:56.118Z,86.28
2022-10-25T23:26:25.999Z,83.97
2022-10-25T23:28:54.468Z,86.75
2022-10-25T23:31:22.146Z,91.47
2022-10-25T23:33:54.741Z,93.93
2022-10-25T23:36:24.861Z,96.34
2022-10-25T23:38:52.875Z,94.50
2022-10-25T23:41:21.082Z,92.47
2022-10-25T23:43:49.095Z,91.42
2022-10-25T23:46:16.448Z,89.75
2022-10-25T23:48:43.806Z,91.40
2022-10-25T23:51:14.185Z,87.53
2022-10-25T23:53:41.941Z,85.39
2022-10-25T23:56:11.035Z,87.46
2022-10-25T23:58:39.155Z,87.30
